sensor_id;sensor_type;location;lat;lon;timestamp;pressure;altitude;pressure_sealevel;temperature;humidity
69221;BME280;56331;51.992;20.910;2023-04-04T00:01:59;101023.48;;;22.67;27.38
69221;BME280;56331;51.992;20.910;2023-04-04T00:04:26;101021.87;;;22.66;27.38
69221;BME280;56331;51.992;20.910;2023-04-04T00:06:54;101016.05;;;22.65;27.42
69221;BME280;56331;51.992;20.910;2023-04-04T00:09:21;101016.31;;;22.66;27.34
69221;BME280;56331;51.992;20.910;2023-04-04T00:11:47;101017.79;;;22.64;27.35
69221;BME280;56331;51.992;20.910;2023-04-04T00:14:15;101015.82;;;22.64;27.38
69221;BME280;56331;51.992;20.910;2023-04-04T00:16:42;101016.98;;;22.63;27.40
69221;BME280;56331;51.992;20.910;2023-04-04T00:19:08;101015.33;;;22.62;27.37
69221;BME280;56331;51.992;20.910;2023-04-04T00:21:37;101018.92;;;22.63;27.35
69221;BME280;56331;51.992;20.910;2023-04-04T00:24:07;101013.36;;;22.63;27.37
69221;BME280;56331;51.992;20.910;2023-04-04T00:26:32;101013.36;;;22.63;27.34
69221;BME280;56331;51.992;20.910;2023-04-04T00:28:58;101009.20;;;22.63;27.32
69221;BME280;56331;51.992;20.910;2023-04-04T00:31:25;101000.31;;;22.63;27.34
69221;BME280;56331;51.992;20.910;2023-04-04T00:33:52;101002.25;;;22.63;27.30
69221;BME280;56331;51.992;20.910;2023-04-04T00:36:18;101000.05;;;22.62;27.27
69221;BME280;56331;51.992;20.910;2023-04-04T00:38:45;100999.25;;;22.62;27.28
69221;BME280;56331;51.992;20.910;2023-04-04T00:41:11;100998.44;;;22.61;27.31
69221;BME280;56331;51.992;20.910;2023-04-04T00:43:39;100998.20;;;22.60;27.28
69221;BME280;56331;51.992;20.910;2023-04-04T00:46:06;100990.69;;;22.61;27.29
69221;BME280;56331;51.992;20.910;2023-04-04T00:48:33;100992.39;;;22.59;27.31
69221;BME280;56331;51.992;20.910;2023-04-04T00:51:01;100984.06;;;22.59;27.30
69221;BME280;56331;51.992;20.910;2023-04-04T00:53:27;100978.77;;;22.60;27.36
69221;BME280;56331;51.992;20.910;2023-04-04T00:55:54;100975.73;;;22.59;27.35
69221;BME280;56331;51.992;20.910;2023-04-04T00:58:21;100972.95;;;22.59;27.33
69221;BME280;56331;51.992;20.910;2023-04-04T01:00:47;100971.66;;;22.57;27.28
69221;BME280;56331;51.992;20.910;2023-04-04T01:03:14;100968.16;;;22.54;27.25
69221;BME280;56331;51.992;20.910;2023-04-04T01:05:42;100969.05;;;22.52;26.91
69221;BME280;56331;51.992;20.910;2023-04-04T01:08:08;100966.71;;;22.47;26.89
69221;BME280;56331;51.992;20.910;2023-04-04T01:10:35;100965.41;;;22.45;26.83
69221;BME280;56331;51.992;20.910;2023-04-04T01:13:02;100965.41;;;22.45;26.80
69221;BME280;56331;51.992;20.910;2023-04-04T01:15:29;100957.40;;;22.43;26.82
69221;BME280;56331;51.992;20.910;2023-04-04T01:17:59;100962.45;;;22.41;26.91
69221;BME280;56331;51.992;20.910;2023-04-04T01:20:26;100956.67;;;22.40;26.92
69221;BME280;56331;51.992;20.910;2023-04-04T01:22:54;100954.48;;;22.40;26.92
69221;BME280;56331;51.992;20.910;2023-04-04T01:25:29;100958.87;;;22.41;27.13
69221;BME280;56331;51.992;20.910;2023-04-04T01:27:58;100956.41;;;22.39;27.10
69221;BME280;56331;51.992;20.910;2023-04-04T01:30:33;100952.34;;;22.37;26.99
69221;BME280;56331;51.992;20.910;2023-04-04T01:33:01;100952.91;;;22.36;27.04
69221;BME280;56331;51.992;20.910;2023-04-04T01:36:43;100949.65;;;22.34;26.97
69221;BME280;56331;51.992;20.910;2023-04-04T01:40:54;100961.59;;;22.35;26.91
69221;BME280;56331;51.992;20.910;2023-04-04T01:43:22;100958.23;;;22.35;26.75
69221;BME280;56331;51.992;20.910;2023-04-04T01:45:48;100958.81;;;22.35;26.85
69221;BME280;56331;51.992;20.910;2023-04-04T01:48:16;100964.11;;;22.34;26.80
69221;BME280;56331;51.992;20.910;2023-04-04T01:50:42;100961.59;;;22.35;26.74
69221;BME280;56331;51.992;20.910;2023-04-04T01:53:09;100960.20;;;22.35;26.74
69221;BME280;56331;51.992;20.910;2023-04-04T01:55:35;100961.02;;;22.35;26.86
69221;BME280;56331;51.992;20.910;2023-04-04T01:58:02;100956.84;;;22.35;26.90
69221;BME280;56331;51.992;20.910;2023-04-04T02:00:28;100958.55;;;22.34;27.00
69221;BME280;56331;51.992;20.910;2023-04-04T02:02:55;100954.47;;;22.31;27.00
69221;BME280;56331;51.992;20.910;2023-04-04T02:05:22;100952.69;;;22.35;26.78
69221;BME280;56331;51.992;20.910;2023-04-04T02:07:48;100953.09;;;22.40;26.69
69221;BME280;56331;51.992;20.910;2023-04-04T02:10:18;100956.91;;;22.41;26.50
69221;BME280;56331;51.992;20.910;2023-04-04T02:12:45;100966.53;;;22.44;26.41
69221;BME280;56331;51.992;20.910;2023-04-04T02:15:12;100958.30;;;22.41;26.24
69221;BME280;56331;51.992;20.910;2023-04-04T02:17:39;100964.02;;;22.45;26.15
69221;BME280;56331;51.992;20.910;2023-04-04T02:20:07;100962.63;;;22.45;25.97
69221;BME280;56331;51.992;20.910;2023-04-04T02:22:33;100965.41;;;22.45;25.80
69221;BME280;56331;51.992;20.910;2023-04-04T02:25:00;100961.70;;;22.47;25.73
69221;BME280;56331;51.992;20.910;2023-04-04T02:27:27;100958.38;;;22.47;25.58
69221;BME280;56331;51.992;20.910;2023-04-04T02:29:54;100961.70;;;22.47;25.52
69221;BME280;56331;51.992;20.910;2023-04-04T02:32:21;100960.31;;;22.47;25.39
69221;BME280;56331;51.992;20.910;2023-04-04T02:34:48;100962.55;;;22.47;25.29
69221;BME280;56331;51.992;20.910;2023-04-04T02:37:15;100965.06;;;22.46;25.14
69221;BME280;56331;51.992;20.910;2023-04-04T02:39:43;100962.05;;;22.45;25.18
69221;BME280;56331;51.992;20.910;2023-04-04T02:42:11;100962.05;;;22.45;25.07
69221;BME280;56331;51.992;20.910;2023-04-04T02:44:37;100967.34;;;22.44;25.03
69221;BME280;56331;51.992;20.910;2023-04-04T02:47:05;100969.89;;;22.43;24.90
69221;BME280;56331;51.992;20.910;2023-04-04T02:49:32;100972.67;;;22.43;24.86
69221;BME280;56331;51.992;20.910;2023-04-04T02:51:58;100975.53;;;22.41;24.74
69221;BME280;56331;51.992;20.910;2023-04-04T02:54:25;100970.78;;;22.41;24.79
69221;BME280;56331;51.992;20.910;2023-04-04T02:56:52;100968.81;;;22.42;24.75
69221;BME280;56331;51.992;20.910;2023-04-04T02:59:18;100969.98;;;22.41;24.56
69221;BME280;56331;51.992;20.910;2023-04-04T03:01:45;100965.81;;;22.41;24.59
69221;BME280;56331;51.992;20.910;2023-04-04T03:04:11;100970.64;;;22.38;24.39
69221;BME280;56331;51.992;20.910;2023-04-04T03:06:38;100970.73;;;22.35;24.65
69221;BME280;56331;51.992;20.910;2023-04-04T03:09:06;100971.39;;;22.32;24.61
69221;BME280;56331;51.992;20.910;2023-04-04T03:11:33;100975.06;;;22.30;24.63
69221;BME280;56331;51.992;20.910;2023-04-04T03:13:59;100973.44;;;22.29;24.76
69221;BME280;56331;51.992;20.910;2023-04-04T03:16:26;100965.43;;;22.27;24.80
69221;BME280;56331;51.992;20.910;2023-04-04T03:18:54;100970.17;;;22.27;24.89
69221;BME280;56331;51.992;20.910;2023-04-04T03:21:21;100970.41;;;22.28;24.88
69221;BME280;56331;51.992;20.910;2023-04-04T03:23:47;100973.44;;;22.29;24.94
69221;BME280;56331;51.992;20.910;2023-04-04T03:26:14;100972.37;;;22.27;24.93
69221;BME280;56331;51.992;20.910;2023-04-04T03:28:40;100966.81;;;22.27;25.08
69221;BME280;56331;51.992;20.910;2023-04-04T03:31:07;100971.88;;;22.25;25.11
69221;BME280;56331;51.992;20.910;2023-04-04T03:33:37;100967.22;;;22.23;25.21
69221;BME280;56331;51.992;20.910;2023-04-04T03:36:11;100965.37;;;22.21;25.20
69221;BME280;56331;51.992;20.910;2023-04-04T03:38:39;100960.13;;;22.20;25.28
69221;BME280;56331;51.992;20.910;2023-04-04T03:41:06;100964.30;;;22.20;25.27
69221;BME280;56331;51.992;20.910;2023-04-04T03:43:33;100959.33;;;22.19;25.21
69221;BME280;56331;51.992;20.910;2023-04-04T03:46:03;100959.55;;;22.20;25.37
69221;BME280;56331;51.992;20.910;2023-04-04T03:48:30;100961.20;;;22.21;25.39
69221;BME280;56331;51.992;20.910;2023-04-04T03:50:57;100968.14;;;22.21;25.40
69221;BME280;56331;51.992;20.910;2023-04-04T03:53:24;100962.59;;;22.21;25.48
69221;BME280;56331;51.992;20.910;2023-04-04T03:55:51;100958.98;;;22.21;25.50
69221;BME280;56331;51.992;20.910;2023-04-04T03:58:19;100964.30;;;22.20;25.62
69221;BME280;56331;51.992;20.910;2023-04-04T04:00:46;100960.71;;;22.19;25.62
69221;BME280;56331;51.992;20.910;2023-04-04T04:03:17;100964.58;;;22.18;25.62
69221;BME280;56331;51.992;20.910;2023-04-04T04:05:44;100968.61;;;22.23;25.57
69221;BME280;56331;51.992;20.910;2023-04-04T04:08:10;100959.88;;;22.27;25.43
69221;BME280;56331;51.992;20.910;2023-04-04T04:10:37;100961.50;;;22.28;25.36
69221;BME280;56331;51.992;20.910;2023-04-04T04:13:03;100961.99;;;22.31;25.26
69221;BME280;56331;51.992;20.910;2023-04-04T04:15:30;100963.95;;;22.30;25.19
69221;BME280;56331;51.992;20.910;2023-04-04T04:17:56;100967.31;;;22.30;25.17
69221;BME280;56331;51.992;20.910;2023-04-04T04:20:22;100960.61;;;22.31;25.05
69221;BME280;56331;51.992;20.910;2023-04-04T04:22:49;100962.25;;;22.32;25.05
69221;BME280;56331;51.992;20.910;2023-04-04T04:25:16;100958.41;;;22.30;25.06
69221;BME280;56331;51.992;20.910;2023-04-04T04:27:43;100963.38;;;22.31;24.99
69221;BME280;56331;51.992;20.910;2023-04-04T04:30:10;100956.21;;;22.30;24.93
69221;BME280;56331;51.992;20.910;2023-04-04T04:32:38;100955.86;;;22.31;24.82
69221;BME280;56331;51.992;20.910;2023-04-04T04:35:05;100948.92;;;22.31;24.77
69221;BME280;56331;51.992;20.910;2023-04-04T04:37:34;100947.80;;;22.32;24.71
69221;BME280;56331;51.992;20.910;2023-04-04T04:40:01;100946.15;;;22.31;24.69
69221;BME280;56331;51.992;20.910;2023-04-04T04:42:27;100944.53;;;22.30;24.63
69221;BME280;56331;51.992;20.910;2023-04-04T04:44:54;100942.91;;;22.29;24.62
69221;BME280;56331;51.992;20.910;2023-04-04T04:47:20;100947.30;;;22.30;24.54
69221;BME280;56331;51.992;20.910;2023-04-04T04:49:47;100943.72;;;22.30;24.48
69221;BME280;56331;51.992;20.910;2023-04-04T04:52:15;100948.46;;;22.29;24.53
69221;BME280;56331;51.992;20.910;2023-04-04T04:54:41;100952.63;;;22.29;24.49
69221;BME280;56331;51.992;20.910;2023-04-04T04:57:08;100950.89;;;22.31;24.46
69221;BME280;56331;51.992;20.910;2023-04-04T04:59:35;100945.34;;;22.31;24.43
69221;BME280;56331;51.992;20.910;2023-04-04T05:02:02;100943.72;;;22.30;24.34
69221;BME280;56331;51.992;20.910;2023-04-04T05:04:28;100940.95;;;22.30;24.32
69221;BME280;56331;51.992;20.910;2023-04-04T05:06:55;100941.75;;;22.30;24.15
69221;BME280;56331;51.992;20.910;2023-04-04T05:09:23;100942.33;;;22.30;24.17
69221;BME280;56331;51.992;20.910;2023-04-04T05:11:54;100942.07;;;22.28;24.17
69221;BME280;56331;51.992;20.910;2023-04-04T05:14:21;100942.65;;;22.28;24.12
69221;BME280;56331;51.992;20.910;2023-04-04T05:16:47;100935.56;;;22.24;24.15
69221;BME280;56331;51.992;20.910;2023-04-04T05:19:14;100935.80;;;22.25;24.19
69221;BME280;56331;51.992;20.910;2023-04-04T05:21:40;100942.42;;;22.27;24.21
69221;BME280;56331;51.992;20.910;2023-04-04T05:24:07;100948.55;;;22.26;24.21
69221;BME280;56331;51.992;20.910;2023-04-04T05:26:34;100948.55;;;22.26;24.21
69221;BME280;56331;51.992;20.910;2023-04-04T05:29:03;100949.94;;;22.26;24.16
69221;BME280;56331;51.992;20.910;2023-04-04T05:31:29;100949.09;;;22.26;24.21
69221;BME280;56331;51.992;20.910;2023-04-04T05:33:57;100954.09;;;22.26;24.33
69221;BME280;56331;51.992;20.910;2023-04-04T05:36:23;100952.45;;;22.25;24.49
69221;BME280;56331;51.992;20.910;2023-04-04T05:38:50;100955.22;;;22.25;24.63
69221;BME280;56331;51.992;20.910;2023-04-04T05:41:17;100953.26;;;22.26;24.68
69221;BME280;56331;51.992;20.910;2023-04-04T05:43:43;100944.70;;;22.25;24.76
69221;BME280;56331;51.992;20.910;2023-04-04T05:46:14;100951.06;;;22.25;24.90
69221;BME280;56331;51.992;20.910;2023-04-04T05:48:38;100953.03;;;22.25;24.99
69221;BME280;56331;51.992;20.910;2023-04-04T05:51:05;100953.60;;;22.24;25.10
69221;BME280;56331;51.992;20.910;2023-04-04T05:53:31;100949.44;;;22.24;25.22
69221;BME280;56331;51.992;20.910;2023-04-04T05:55:58;100954.41;;;22.25;25.24
69221;BME280;56331;51.992;20.910;2023-04-04T05:58:26;100951.06;;;22.25;25.19
69221;BME280;56331;51.992;20.910;2023-04-04T06:00:52;100951.41;;;22.24;25.15
69221;BME280;56331;51.992;20.910;2023-04-04T06:03:18;100954.73;;;22.23;25.15
69221;BME280;56331;51.992;20.910;2023-04-04T06:05:50;100950.42;;;22.20;25.17
69221;BME280;56331;51.992;20.910;2023-04-04T06:08:17;100947.33;;;22.21;25.17
69221;BME280;56331;51.992;20.910;2023-04-04T06:10:48;100948.45;;;22.20;25.28
69221;BME280;56331;51.992;20.910;2023-04-04T06:13:12;100947.56;;;22.22;25.33
69221;BME280;56331;51.992;20.910;2023-04-04T06:15:39;100946.75;;;22.22;25.45
69221;BME280;56331;51.992;20.910;2023-04-04T06:18:06;100946.75;;;22.22;25.52
69221;BME280;56331;51.992;20.910;2023-04-04T06:20:33;100951.72;;;22.22;25.59
69221;BME280;56331;51.992;20.910;2023-04-04T06:22:59;100946.98;;;22.23;25.57
69221;BME280;56331;51.992;20.910;2023-04-04T06:25:29;100945.86;;;22.24;25.49
69221;BME280;56331;51.992;20.910;2023-04-04T06:27:56;100938.57;;;22.25;25.44
69221;BME280;56331;51.992;20.910;2023-04-04T06:30:26;100937.77;;;22.25;25.46
69221;BME280;56331;51.992;20.910;2023-04-04T06:32:52;100941.92;;;22.25;25.47
69221;BME280;56331;51.992;20.910;2023-04-04T06:35:20;100940.31;;;22.24;25.45
69221;BME280;56331;51.992;20.910;2023-04-04T06:37:46;100945.51;;;22.25;25.39
69221;BME280;56331;51.992;20.910;2023-04-04T06:40:13;100941.92;;;22.25;25.40
69221;BME280;56331;51.992;20.910;2023-04-04T06:42:48;100941.34;;;22.25;25.33
69221;BME280;56331;51.992;20.910;2023-04-04T06:45:15;100934.98;;;22.25;25.27
69221;BME280;56331;51.992;20.910;2023-04-04T06:47:42;100940.86;;;22.23;25.21
69221;BME280;56331;51.992;20.910;2023-04-04T06:50:10;100936.46;;;22.22;25.04
69221;BME280;56331;51.992;20.910;2023-04-04T06:52:37;100932.21;;;22.25;25.00
69221;BME280;56331;51.992;20.910;2023-04-04T06:55:05;100934.41;;;22.25;24.95
69221;BME280;56331;51.992;20.910;2023-04-04T06:57:32;100938.57;;;22.25;25.00
69221;BME280;56331;51.992;20.910;2023-04-04T06:59:58;100940.77;;;22.26;25.01
69221;BME280;56331;51.992;20.910;2023-04-04T07:02:26;100939.96;;;22.25;24.98
69221;BME280;56331;51.992;20.910;2023-04-04T07:04:53;100940.22;;;22.26;25.58
69221;BME280;56331;51.992;20.910;2023-04-04T07:07:19;100937.99;;;22.26;25.61
69221;BME280;56331;51.992;20.910;2023-04-04T07:09:47;100937.99;;;22.26;25.89
69221;BME280;56331;51.992;20.910;2023-04-04T07:12:16;100932.94;;;22.28;25.70
69221;BME280;56331;51.992;20.910;2023-04-04T07:14:44;100929.84;;;22.30;25.90
69221;BME280;56331;51.992;20.910;2023-04-04T07:17:11;100935.31;;;22.32;25.88
69221;BME280;56331;51.992;20.910;2023-04-04T07:19:38;100927.93;;;22.36;25.82
69221;BME280;56331;51.992;20.910;2023-04-04T07:22:04;100921.98;;;22.40;25.63
69221;BME280;56331;51.992;20.910;2023-04-04T07:24:31;100920.15;;;22.44;25.80
69221;BME280;56331;51.992;20.910;2023-04-04T07:26:57;100909.80;;;22.47;25.85
69221;BME280;56331;51.992;20.910;2023-04-04T07:29:23;100913.78;;;22.53;25.70
69221;BME280;56331;51.992;20.910;2023-04-04T07:31:50;100913.11;;;22.56;25.71
69221;BME280;56331;51.992;20.910;2023-04-04T07:34:16;100907.95;;;22.60;26.10
69221;BME280;56331;51.992;20.910;2023-04-04T07:36:42;100907.28;;;22.63;26.40
69221;BME280;56331;51.992;20.910;2023-04-04T07:39:09;100902.68;;;22.67;26.76
69221;BME280;56331;51.992;20.910;2023-04-04T07:41:35;100908.41;;;22.71;26.98
69221;BME280;56331;51.992;20.910;2023-04-04T07:44:02;100905.18;;;22.75;27.54
69221;BME280;56331;51.992;20.910;2023-04-04T07:46:28;100907.28;;;22.78;28.00
69221;BME280;56331;51.992;20.910;2023-04-04T07:48:55;100902.38;;;22.84;28.11
69221;BME280;56331;51.992;20.910;2023-04-04T07:51:21;100907.75;;;22.89;28.56
69221;BME280;56331;51.992;20.910;2023-04-04T07:53:49;100908.92;;;22.94;28.40
69221;BME280;56331;51.992;20.910;2023-04-04T07:56:16;100905.17;;;22.99;28.38
69221;BME280;56331;51.992;20.910;2023-04-04T07:58:42;100901.40;;;23.03;28.65
69221;BME280;56331;51.992;20.910;2023-04-04T08:01:08;100905.15;;;23.07;28.69
69221;BME280;56331;51.992;20.910;2023-04-04T08:03:36;100897.75;;;23.11;28.81
69221;BME280;56331;51.992;20.910;2023-04-04T08:06:03;100901.14;;;23.17;28.90
69221;BME280;56331;51.992;20.910;2023-04-04T08:08:29;100921.09;;;23.19;28.74
69221;BME280;56331;51.992;20.910;2023-04-04T08:10:56;100896.78;;;23.22;28.84
69221;BME280;56331;51.992;20.910;2023-04-04T08:13:22;100889.98;;;23.26;29.00
69221;BME280;56331;51.992;20.910;2023-04-04T08:15:49;100888.73;;;23.29;28.75
69221;BME280;56331;51.992;20.910;2023-04-04T08:18:15;100887.82;;;23.31;28.86
69221;BME280;56331;51.992;20.910;2023-04-04T08:20:43;100891.41;;;23.32;29.19
69221;BME280;56331;51.992;20.910;2023-04-04T08:23:12;100886.33;;;23.34;29.11
69221;BME280;56331;51.992;20.910;2023-04-04T08:25:38;100887.72;;;23.34;29.35
69221;BME280;56331;51.992;20.910;2023-04-04T08:28:05;100881.00;;;23.35;28.92
69221;BME280;56331;51.992;20.910;2023-04-04T08:30:31;100879.86;;;23.36;28.45
69221;BME280;56331;51.992;20.910;2023-04-04T08:32:58;100873.47;;;23.35;28.14
69221;BME280;56331;51.992;20.910;2023-04-04T08:35:24;100880.09;;;23.37;27.22
69221;BME280;56331;51.992;20.910;2023-04-04T08:37:53;100865.38;;;23.36;27.03
69221;BME280;56331;51.992;20.910;2023-04-04T08:40:19;100879.77;;;23.39;26.37
69221;BME280;56331;51.992;20.910;2023-04-04T08:42:46;100876.50;;;23.36;26.32
69221;BME280;56331;51.992;20.910;2023-04-04T08:45:16;100868.74;;;23.36;26.64
69221;BME280;56331;51.992;20.910;2023-04-04T08:47:45;100876.25;;;23.35;26.91
69221;BME280;56331;51.992;20.910;2023-04-04T08:50:13;100877.09;;;23.36;27.05
69221;BME280;56331;51.992;20.910;2023-04-04T08:52:41;100871.27;;;23.35;26.93
69221;BME280;56331;51.992;20.910;2023-04-04T08:55:09;100873.23;;;23.34;26.83
69221;BME280;56331;51.992;20.910;2023-04-04T08:57:40;100882.39;;;23.35;26.90
69221;BME280;56331;51.992;20.910;2023-04-04T09:00:05;100878.48;;;23.36;26.78
69221;BME280;56331;51.992;20.910;2023-04-04T09:02:49;100875.70;;;23.36;26.74
69221;BME280;56331;51.992;20.910;2023-04-04T09:05:11;100879.28;;;23.36;26.63
69221;BME280;56331;51.992;20.910;2023-04-04T09:07:39;100874.20;;;23.39;26.58
69221;BME280;56331;51.992;20.910;2023-04-04T09:10:08;100877.31;;;23.37;26.44
69221;BME280;56331;51.992;20.910;2023-04-04T09:12:38;100862.02;;;23.37;26.51
69221;BME280;56331;51.992;20.910;2023-04-04T09:15:07;100866.67;;;23.39;26.59
69221;BME280;56331;51.992;20.910;2023-04-04T09:17:35;100862.62;;;23.43;26.55
69221;BME280;56331;51.992;20.910;2023-04-04T09:20:02;100861.01;;;23.42;26.46
69221;BME280;56331;51.992;20.910;2023-04-04T09:22:29;100872.61;;;23.44;26.27
69221;BME280;56331;51.992;20.910;2023-04-04T09:24:56;100868.99;;;23.43;26.11
69221;BME280;56331;51.992;20.910;2023-04-04T09:27:22;100868.67;;;23.45;26.18
69221;BME280;56331;51.992;20.910;2023-04-04T09:29:49;100870.38;;;23.43;26.27
69221;BME280;56331;51.992;20.910;2023-04-04T09:32:15;100868.67;;;23.45;26.17
69221;BME280;56331;51.992;20.910;2023-04-04T09:34:43;100868.31;;;23.46;26.19
69221;BME280;56331;51.992;20.910;2023-04-04T09:37:12;100866.92;;;23.46;26.29
69221;BME280;56331;51.992;20.910;2023-04-04T09:39:40;100868.31;;;23.46;26.53
69221;BME280;56331;51.992;20.910;2023-04-04T09:42:11;100865.42;;;23.49;26.78
69221;BME280;56331;51.992;20.910;2023-04-04T09:44:37;100862.64;;;23.49;26.83
69221;BME280;56331;51.992;20.910;2023-04-04T09:47:23;100865.20;;;23.48;26.88
69221;BME280;56331;51.992;20.910;2023-04-04T09:49:50;100870.08;;;23.51;26.99
69221;BME280;56331;51.992;20.910;2023-04-04T09:52:19;100867.55;;;23.52;26.92
69221;BME280;56331;51.992;20.910;2023-04-04T09:54:59;100863.94;;;23.51;26.97
69221;BME280;56331;51.992;20.910;2023-04-04T09:57:31;100856.43;;;23.52;27.17
69221;BME280;56331;51.992;20.910;2023-04-04T09:59:59;100866.39;;;23.53;27.37
69221;BME280;56331;51.992;20.910;2023-04-04T10:02:26;100858.85;;;23.53;27.45
69221;BME280;56331;51.992;20.910;2023-04-04T10:04:56;100857.47;;;23.53;27.55
69221;BME280;56331;51.992;20.910;2023-04-04T10:07:25;100862.44;;;23.54;27.42
69221;BME280;56331;51.992;20.910;2023-04-04T10:09:52;100863.28;;;23.54;27.29
69221;BME280;56331;51.992;20.910;2023-04-04T10:12:23;100859.33;;;23.55;27.00
69221;BME280;56331;51.992;20.910;2023-04-04T10:15:02;100863.73;;;23.56;27.14
69221;BME280;56331;51.992;20.910;2023-04-04T10:17:38;100866.28;;;23.55;27.22
69221;BME280;56331;51.992;20.910;2023-04-04T10:20:07;100864.20;;;23.58;27.09
69221;BME280;56331;51.992;20.910;2023-04-04T10:22:35;100860.39;;;23.57;27.10
69221;BME280;56331;51.992;20.910;2023-04-04T10:25:03;100856.45;;;23.58;27.27
69221;BME280;56331;51.992;20.910;2023-04-04T10:27:31;100857.84;;;23.58;27.93
69221;BME280;56331;51.992;20.910;2023-04-04T10:29:58;100855.87;;;23.58;27.68
69221;BME280;56331;51.992;20.910;2023-04-04T10:32:45;100855.05;;;23.58;27.53
69221;BME280;56331;51.992;20.910;2023-04-04T10:35:11;100852.50;;;23.59;27.50
69221;BME280;56331;51.992;20.910;2023-04-04T10:37:51;100860.03;;;23.58;27.54
69221;BME280;56331;51.992;20.910;2023-04-04T10:40:18;100856.45;;;23.58;27.66
69221;BME280;56331;51.992;20.910;2023-04-04T10:42:48;100857.52;;;23.59;27.81
69221;BME280;56331;51.992;20.910;2023-04-04T10:45:15;100841.63;;;23.60;27.96
69221;BME280;56331;51.992;20.910;2023-04-04T10:47:43;100851.37;;;23.60;27.92
69221;BME280;56331;51.992;20.910;2023-04-04T10:50:12;100852.27;;;23.58;27.81
69221;BME280;56331;51.992;20.910;2023-04-04T10:52:44;100845.91;;;23.57;27.66
69221;BME280;56331;51.992;20.910;2023-04-04T10:55:12;100852.86;;;23.57;27.50
69221;BME280;56331;51.992;20.910;2023-04-04T10:57:42;100854.25;;;23.57;27.47
69221;BME280;56331;51.992;20.910;2023-04-04T11:00:14;100862.23;;;23.59;27.30
69221;BME280;56331;51.992;20.910;2023-04-04T11:03:00;100861.91;;;23.61;27.33
69221;BME280;56331;51.992;20.910;2023-04-04T11:05:32;100856.92;;;23.60;27.43
69221;BME280;56331;51.992;20.910;2023-04-04T11:08:02;100851.95;;;23.59;27.39
69221;BME280;56331;51.992;20.910;2023-04-04T11:10:31;100855.05;;;23.58;27.30
69221;BME280;56331;51.992;20.910;2023-04-04T11:13:07;100860.03;;;23.58;27.18
69221;BME280;56331;51.992;20.910;2023-04-04T11:18:44;100853.09;;;23.58;26.91
69221;BME280;56331;51.992;20.910;2023-04-04T11:20:51;100857.52;;;23.59;26.73
69221;BME280;56331;51.992;20.910;2023-04-04T11:23:23;100847.30;;;23.57;26.64
69221;BME280;56331;51.992;20.910;2023-04-04T11:25:54;100848.69;;;23.57;26.66
69221;BME280;56331;51.992;20.910;2023-04-04T11:34:04;100839.66;;;23.61;26.51
69221;BME280;56331;51.992;20.910;2023-04-04T11:39:26;100841.42;;;23.65;26.16
69221;BME280;56331;51.992;20.910;2023-04-04T11:41:55;100841.17;;;23.64;26.10
69221;BME280;56331;51.992;20.910;2023-04-04T11:44:26;100833.77;;;23.62;26.08
69221;BME280;56331;51.992;20.910;2023-04-04T11:49:37;100831.09;;;23.59;26.14
69221;BME280;56331;51.992;20.910;2023-04-04T11:52:06;100833.87;;;23.59;25.96
69221;BME280;56331;51.992;20.910;2023-04-04T11:54:39;100834.09;;;23.61;26.00
69221;BME280;56331;51.992;20.910;2023-04-04T11:57:13;100833.77;;;23.62;26.12
69221;BME280;56331;51.992;20.910;2023-04-04T11:59:42;100833.66;;;23.65;25.85
69221;BME280;56331;51.992;20.910;2023-04-04T12:02:11;100837.00;;;23.64;25.94
69221;BME280;56331;51.992;20.910;2023-04-04T12:04:39;100828.55;;;23.67;25.59
69221;BME280;56331;51.992;20.910;2023-04-04T12:07:06;100825.06;;;23.64;25.79
69221;BME280;56331;51.992;20.910;2023-04-04T12:09:33;100831.80;;;23.63;25.94
69221;BME280;56331;51.992;20.910;2023-04-04T12:12:00;100826.45;;;23.64;26.24
69221;BME280;56331;51.992;20.910;2023-04-04T12:14:26;100828.65;;;23.64;26.62
69221;BME280;56331;51.992;20.910;2023-04-04T12:16:54;100825.06;;;23.64;26.94
69221;BME280;56331;51.992;20.910;2023-04-04T12:19:27;100823.34;;;23.65;27.47
69221;BME280;56331;51.992;20.910;2023-04-04T12:21:53;100825.55;;;23.66;27.70
69221;BME280;56331;51.992;20.910;2023-04-04T12:24:22;100821.27;;;23.68;27.95
69221;BME280;56331;51.992;20.910;2023-04-04T12:26:53;100826.50;;;23.70;28.08
69221;BME280;56331;51.992;20.910;2023-04-04T12:29:21;100825.66;;;23.69;28.22
69221;BME280;56331;51.992;20.910;2023-04-04T12:31:49;100829.28;;;23.70;28.10
69221;BME280;56331;51.992;20.910;2023-04-04T12:34:23;100831.00;;;23.68;28.13
69221;BME280;56331;51.992;20.910;2023-04-04T12:36:55;100826.83;;;23.68;28.20
69221;BME280;56331;51.992;20.910;2023-04-04T12:39:27;100819.65;;;23.67;28.29
69221;BME280;56331;51.992;20.910;2023-04-04T12:42:01;100827.41;;;23.68;28.27
69221;BME280;56331;51.992;20.910;2023-04-04T12:44:34;100828.22;;;23.68;28.33
69221;BME280;56331;51.992;20.910;2023-04-04T12:47:03;100823.46;;;23.69;28.29
69221;BME280;56331;51.992;20.910;2023-04-04T12:49:41;100823.46;;;23.69;28.28
69221;BME280;56331;51.992;20.910;2023-04-04T12:52:19;100824.09;;;23.74;28.13
69221;BME280;56331;51.992;20.910;2023-04-04T12:54:45;100818.63;;;23.72;28.28
69221;BME280;56331;51.992;20.910;2023-04-04T12:57:24;100813.98;;;23.70;28.42
69221;BME280;56331;51.992;20.910;2023-04-04T12:59:53;100812.34;;;23.69;28.54
69221;BME280;56331;51.992;20.910;2023-04-04T13:02:21;100819.06;;;23.68;28.74